createdAt,value
2017-10-31T00:00:40.811Z,59.60
2017-10-31T00:03:08.414Z,59.83
2017-10-31T00:05:36.020Z,58.83
2017-10-31T00:08:03.685Z,58.62
2017-10-31T00:10:31.359Z,58.51
2017-10-31T00:12:58.970Z,58.29
2017-10-31T00:15:26.635Z,59.27
2017-10-31T00:17:54.305Z,59.09
2017-10-31T00:20:21.931Z,58.38
2017-10-31T00:22:49.583Z,58.71
2017-10-31T00:25:17.201Z,58.45
2017-10-31T00:27:44.815Z,58.48
2017-10-31T00:30:12.475Z,58.54
2017-10-31T00:32:40.140Z,58.70
2017-10-31T00:35:07.760Z,58.51
2017-10-31T00:37:36.337Z,59.02
2017-10-31T00:40:03.968Z,59.71
2017-10-31T00:42:31.583Z,59.52
2017-10-31T00:44:59.329Z,59.54
2017-10-31T00:47:26.935Z,58.61
2017-10-31T00:49:54.592Z,59.19
2017-10-31T00:52:22.271Z,59.35
2017-10-31T00:54:49.890Z,59.36
2017-10-31T00:57:17.499Z,59.93
2017-10-31T00:59:45.162Z,59.76
2017-10-31T01:02:12.819Z,59.86
2017-10-31T01:04:40.428Z,59.79
2017-10-31T01:07:08.179Z,60.54
2017-10-31T01:09:35.786Z,60.46
2017-10-31T01:12:03.404Z,61.46
2017-10-31T01:14:31.058Z,61.40
2017-10-31T01:16:58.668Z,60.99
2017-10-31T01:19:26.326Z,61.64
2017-10-31T01:21:53.995Z,61.09
2017-10-31T01:24:21.619Z,60.83
2017-10-31T01:26:49.230Z,60.82
2017-10-31T01:29:16.952Z,60.60
2017-10-31T01:31:44.575Z,61.11
2017-10-31T01:34:12.251Z,61.02
2017-10-31T01:36:39.943Z,60.90
2017-10-31T01:39:07.626Z,60.63
2017-10-31T01:41:35.312Z,61.15
2017-10-31T01:44:03.034Z,61.06
2017-10-31T01:46:30.637Z,61.88
2017-10-31T01:48:58.249Z,61.44
2017-10-31T01:51:25.975Z,61.73
2017-10-31T01:53:53.653Z,61.72
2017-10-31T01:56:21.342Z,62.24
2017-10-31T01:58:49.008Z,62.19
2017-10-31T02:01:16.617Z,61.45
2017-10-31T02:03:44.288Z,61.89
2017-10-31T02:06:12.020Z,62.15
2017-10-31T02:08:39.645Z,62.54
2017-10-31T02:11:07.260Z,62.40
2017-10-31T02:13:34.915Z,63.44
2017-10-31T02:16:02.528Z,62.80
2017-10-31T02:18:30.138Z,62.38
2017-10-31T02:20:57.822Z,62.55
2017-10-31T02:23:25.459Z,62.63
2017-10-31T02:25:53.998Z,62.46
2017-10-31T02:28:21.717Z,62.79
2017-10-31T02:30:49.405Z,63.26
2017-10-31T02:33:17.088Z,63.00
2017-10-31T02:35:44.766Z,62.34
2017-10-31T02:38:12.444Z,63.02
2017-10-31T02:40:40.075Z,63.08
2017-10-31T02:43:07.827Z,63.54
2017-10-31T02:45:35.481Z,63.87
2017-10-31T02:48:03.161Z,63.50
2017-10-31T02:50:30.864Z,63.73
2017-10-31T02:52:58.496Z,63.83
2017-10-31T02:55:26.129Z,63.03
2017-10-31T02:57:53.822Z,63.51
2017-10-31T03:00:21.509Z,63.27
2017-10-31T03:02:49.172Z,63.67
2017-10-31T03:05:16.865Z,63.46
2017-10-31T03:07:44.557Z,63.47
2017-10-31T03:10:12.299Z,63.48
2017-10-31T03:12:40.055Z,63.05
2017-10-31T03:15:07.736Z,63.28
2017-10-31T03:17:35.423Z,63.57
2017-10-31T03:20:03.108Z,63.48
2017-10-31T03:22:30.811Z,63.55
2017-10-31T03:24:58.444Z,62.94
2017-10-31T03:27:26.119Z,62.90
2017-10-31T03:29:53.732Z,63.23
2017-10-31T03:32:21.419Z,63.28
2017-10-31T03:34:49.108Z,63.56
2017-10-31T03:37:16.767Z,63.90
2017-10-31T03:39:44.392Z,63.55
2017-10-31T03:42:12.084Z,63.48
2017-10-31T03:44:39.776Z,63.17
2017-10-31T03:47:07.393Z,63.99
2017-10-31T03:49:35.096Z,63.78
2017-10-31T03:52:02.719Z,63.51
2017-10-31T03:54:30.340Z,63.48
2017-10-31T03:56:58.007Z,64.00
2017-10-31T03:59:25.700Z,64.14
2017-10-31T04:01:53.347Z,63.93
2017-10-31T04:04:21.172Z,64.30
2017-10-31T04:06:48.846Z,63.82
2017-10-31T04:09:16.556Z,63.59
2017-10-31T04:11:44.300Z,63.80
2017-10-31T04:14:12.957Z,64.19
2017-10-31T04:16:40.590Z,63.73
2017-10-31T04:19:08.259Z,62.91
2017-10-31T04:21:35.935Z,63.76
2017-10-31T04:24:03.545Z,63.79
2017-10-31T04:26:31.203Z,64.11
2017-10-31T04:28:58.819Z,63.66
2017-10-31T04:31:26.428Z,63.30
2017-10-31T04:33:54.143Z,64.15
2017-10-31T04:38:55.656Z,63.74
2017-10-31T04:41:23.293Z,64.58
2017-10-31T04:43:51.019Z,63.75
2017-10-31T04:46:18.699Z,64.04
2017-10-31T04:48:46.319Z,63.93
2017-10-31T04:51:13.988Z,64.59
2017-10-31T04:53:41.667Z,63.87
2017-10-31T04:56:09.307Z,63.34
2017-10-31T04:58:36.998Z,63.54
2017-10-31T05:01:04.660Z,64.46
2017-10-31T05:03:32.278Z,64.67
2017-10-31T05:05:59.891Z,64.59
2017-10-31T05:08:27.556Z,65.29
2017-10-31T05:10:55.224Z,64.88
2017-10-31T05:13:22.824Z,65.21
2017-10-31T05:15:50.636Z,64.70
2017-10-31T05:18:18.411Z,64.59
2017-10-31T05:20:46.080Z,64.32
2017-10-31T05:23:13.748Z,64.04
2017-10-31T05:25:41.363Z,63.49
2017-10-31T05:28:09.777Z,63.49
2017-10-31T05:30:37.509Z,63.43
2017-10-31T05:33:05.350Z,62.63
2017-10-31T05:35:33.036Z,62.53
2017-10-31T05:38:00.700Z,62.35
2017-10-31T05:40:28.308Z,62.08
2017-10-31T05:42:55.965Z,61.82
2017-10-31T05:45:23.629Z,62.18
2017-10-31T05:47:51.243Z,61.48
2017-10-31T05:50:18.924Z,61.22
2017-10-31T05:52:46.638Z,60.62
2017-10-31T05:55:14.238Z,60.06
2017-10-31T05:57:41.913Z,59.68
2017-10-31T06:00:09.580Z,59.65
2017-10-31T06:02:37.191Z,59.73
2017-10-31T06:05:04.882Z,59.42
2017-10-31T06:07:32.567Z,58.88
2017-10-31T06:10:00.180Z,59.32
2017-10-31T06:12:27.792Z,59.02
2017-10-31T06:14:55.451Z,59.25
2017-10-31T06:17:23.055Z,59.71
2017-10-31T06:19:50.664Z,58.96
2017-10-31T06:22:24.020Z,58.90
2017-10-31T06:24:57.123Z,59.11
2017-10-31T06:27:30.370Z,59.09
2017-10-31T06:30:03.647Z,58.84
2017-10-31T06:32:31.299Z,58.91
2017-10-31T06:34:58.971Z,58.15
2017-10-31T06:37:26.646Z,58.42
2017-10-31T06:39:54.315Z,58.93
2017-10-31T06:42:21.920Z,58.41
2017-10-31T06:44:49.522Z,58.06
2017-10-31T06:47:17.735Z,58.65
2017-10-31T06:49:45.350Z,57.82
2017-10-31T06:52:12.976Z,57.15
2017-10-31T06:54:40.647Z,57.76
2017-10-31T06:57:08.255Z,56.48
2017-10-31T06:59:35.932Z,56.89
2017-10-31T07:02:03.659Z,56.78
2017-10-31T07:04:31.272Z,56.64
2017-10-31T07:06:58.891Z,56.08
2017-10-31T07:09:26.596Z,56.18
2017-10-31T07:11:54.226Z,55.74
2017-10-31T07:14:21.841Z,55.92
2017-10-31T07:16:49.599Z,55.28
2017-10-31T07:19:17.212Z,55.18
2017-10-31T07:21:44.816Z,54.94
2017-10-31T07:24:12.475Z,54.50
2017-10-31T07:26:40.100Z,55.38
2017-10-31T07:29:07.773Z,54.67
2017-10-31T07:31:35.447Z,56.30
2017-10-31T07:34:03.065Z,54.15
2017-10-31T07:36:30.688Z,53.99
2017-10-31T07:38:58.409Z,53.24
2017-10-31T07:41:26.083Z,52.21
2017-10-31T07:43:53.679Z,53.09
2017-10-31T07:46:21.324Z,51.47
2017-10-31T07:48:48.940Z,51.98
2017-10-31T07:51:16.544Z,51.87
2017-10-31T07:53:44.219Z,51.42
2017-10-31T07:56:11.823Z,50.87
2017-10-31T07:58:39.443Z,50.69
2017-10-31T08:01:07.149Z,50.62
2017-10-31T08:03:34.759Z,50.44
2017-10-31T08:06:02.379Z,50.81
2017-10-31T08:08:30.041Z,50.12
2017-10-31T08:10:57.663Z,50.46
2017-10-31T08:13:25.264Z,50.34
2017-10-31T08:15:52.972Z,48.99
2017-10-31T08:18:20.652Z,48.71
2017-10-31T08:20:48.259Z,48.63
2017-10-31T08:23:15.979Z,47.57
2017-10-31T08:25:43.579Z,47.61
2017-10-31T08:28:11.244Z,48.82
2017-10-31T08:30:38.896Z,47.42
2017-10-31T08:33:06.501Z,47.87
2017-10-31T08:35:34.119Z,46.72
2017-10-31T08:38:01.843Z,46.85
2017-10-31T08:40:29.463Z,46.90
2017-10-31T08:42:57.145Z,46.96
2017-10-31T08:45:24.823Z,47.21
2017-10-31T08:47:52.428Z,47.25
2017-10-31T08:50:20.055Z,46.36
2017-10-31T08:52:47.779Z,45.03
2017-10-31T08:55:15.416Z,45.76
2017-10-31T08:57:43.099Z,46.31
2017-10-31T09:00:10.928Z,47.18
2017-10-31T09:02:38.547Z,46.60
2017-10-31T09:05:06.220Z,45.75
2017-10-31T09:07:33.887Z,45.43
2017-10-31T09:10:01.492Z,46.00
2017-10-31T09:12:29.123Z,46.21
2017-10-31T09:14:56.822Z,45.15
2017-10-31T09:17:24.516Z,45.35
2017-10-31T09:19:52.240Z,45.63
2017-10-31T09:22:19.904Z,45.99
2017-10-31T09:24:47.518Z,43.59
2017-10-31T09:27:15.134Z,43.92
2017-10-31T09:29:42.816Z,44.59
2017-10-31T09:32:10.438Z,42.97
2017-10-31T09:34:38.125Z,42.46
2017-10-31T09:37:05.884Z,41.98
2017-10-31T09:39:33.575Z,42.85
2017-10-31T09:42:01.236Z,43.00
2017-10-31T09:44:28.912Z,41.97
2017-10-31T09:46:56.602Z,41.22
2017-10-31T09:49:24.270Z,41.33
2017-10-31T09:51:52.002Z,42.12
2017-10-31T09:54:19.668Z,42.18
2017-10-31T09:56:47.279Z,42.85
2017-10-31T09:59:14.940Z,43.34
2017-10-31T10:01:42.619Z,42.92
2017-10-31T10:04:10.235Z,41.82
2017-10-31T10:06:38.051Z,42.28
2017-10-31T10:09:05.686Z,42.63
2017-10-31T10:11:33.309Z,42.60
2017-10-31T10:14:00.975Z,41.90
2017-10-31T10:16:28.597Z,41.78
2017-10-31T10:18:56.273Z,41.33
2017-10-31T10:21:23.938Z,42.08
2017-10-31T10:23:51.547Z,42.46
2017-10-31T10:26:19.217Z,41.57
2017-10-31T10:28:46.935Z,41.27
2017-10-31T10:31:14.544Z,41.04
2017-10-31T10:33:42.156Z,40.73
2017-10-31T10:36:09.817Z,40.44
2017-10-31T10:38:37.428Z,40.12
2017-10-31T10:41:05.052Z,38.49
2017-10-31T10:43:32.716Z,37.51
2017-10-31T10:46:00.328Z,36.91
2017-10-31T10:48:27.944Z,34.65
2017-10-31T10:50:55.619Z,35.10
2017-10-31T10:53:23.299Z,35.33
2017-10-31T10:55:50.980Z,35.92
2017-10-31T10:58:18.688Z,36.44
2017-10-31T11:00:46.414Z,36.66
2017-10-31T11:03:29.068Z,37.83
2017-10-31T11:05:56.676Z,37.11
2017-10-31T11:08:24.375Z,37.43
2017-10-31T11:10:52.095Z,38.01
2017-10-31T11:13:19.730Z,37.77
2017-10-31T11:15:47.399Z,39.06
2017-10-31T11:18:15.149Z,39.00
2017-10-31T11:20:42.774Z,38.54
2017-10-31T11:23:10.385Z,39.21
2017-10-31T11:25:38.055Z,39.62
2017-10-31T11:28:05.740Z,39.53
2017-10-31T11:30:33.423Z,37.12
2017-10-31T11:33:01.157Z,38.02
2017-10-31T11:35:28.783Z,37.80
2017-10-31T11:37:56.403Z,37.90
2017-10-31T11:40:24.071Z,37.42
2017-10-31T11:42:51.687Z,38.76
2017-10-31T11:45:19.299Z,39.70
2017-10-31T11:47:46.963Z,38.86
2017-10-31T11:50:14.585Z,39.54
2017-10-31T11:52:42.204Z,40.33
2017-10-31T11:55:09.895Z,39.49
2017-10-31T11:57:37.565Z,39.52
2017-10-31T12:00:05.236Z,39.42
2017-10-31T12:02:32.912Z,39.85
2017-10-31T12:05:00.525Z,40.39
2017-10-31T12:07:28.146Z,41.11
2017-10-31T12:09:55.821Z,42.18
2017-10-31T12:12:23.439Z,41.74
2017-10-31T12:14:51.059Z,42.11
2017-10-31T12:17:18.777Z,41.65
2017-10-31T12:19:46.380Z,41.84
2017-10-31T12:22:14.061Z,42.07
2017-10-31T12:24:41.737Z,41.82
2017-10-31T12:27:09.349Z,41.38
2017-10-31T12:29:36.967Z,42.18
2017-10-31T12:32:04.647Z,43.00
2017-10-31T12:34:32.260Z,43.56
2017-10-31T12:36:59.932Z,43.45
2017-10-31T12:39:27.596Z,43.47
2017-10-31T12:41:55.248Z,44.01
2017-10-31T12:44:22.912Z,44.34
2017-10-31T12:46:50.650Z,43.67
2017-10-31T12:49:18.319Z,43.83
2017-10-31T12:51:45.932Z,44.41
2017-10-31T12:54:13.599Z,44.92
2017-10-31T12:56:41.271Z,44.23
2017-10-31T12:59:08.884Z,45.06
2017-10-31T13:01:36.562Z,45.61
2017-10-31T13:04:04.208Z,46.08
2017-10-31T13:06:31.833Z,45.63
2017-10-31T13:08:59.599Z,45.97
2017-10-31T13:11:27.211Z,45.78
2017-10-31T13:13:54.924Z,46.08
2017-10-31T13:16:22.655Z,47.14
2017-10-31T13:18:50.347Z,47.06
2017-10-31T13:21:17.976Z,47.46
2017-10-31T13:23:45.735Z,46.63
2017-10-31T13:26:13.759Z,47.32
2017-10-31T13:28:41.775Z,47.31
2017-10-31T13:31:09.876Z,47.21
2017-10-31T13:33:37.924Z,48.07
2017-10-31T13:36:05.974Z,47.72
2017-10-31T13:38:34.188Z,47.83
2017-10-31T13:41:02.296Z,48.20
2017-10-31T13:43:30.316Z,48.12
2017-10-31T13:45:57.987Z,48.55
2017-10-31T13:48:26.075Z,48.34
2017-10-31T13:50:54.087Z,48.88
2017-10-31T13:53:22.267Z,48.96
2017-10-31T13:55:49.945Z,49.27
2017-10-31T13:58:17.556Z,48.88
2017-10-31T14:00:45.580Z,49.76
2017-10-31T14:03:13.603Z,49.27
2017-10-31T14:05:41.439Z,49.47
2017-10-31T14:08:09.553Z,49.61
2017-10-31T14:10:37.403Z,51.34
2017-10-31T14:13:05.011Z,50.56
2017-10-31T14:15:32.683Z,50.65
2017-10-31T14:18:00.720Z,50.55
2017-10-31T14:20:28.751Z,51.15
2017-10-31T14:22:56.500Z,51.51
2017-10-31T14:25:24.115Z,51.71
2017-10-31T14:27:51.784Z,51.68
2017-10-31T14:30:19.459Z,52.18
2017-10-31T14:32:47.068Z,51.84
2017-10-31T14:35:14.676Z,52.31
2017-10-31T14:37:42.361Z,52.23
2017-10-31T14:40:10.023Z,52.75
2017-10-31T14:42:37.627Z,53.05
2017-10-31T14:45:05.300Z,53.70
2017-10-31T14:47:32.899Z,53.79
2017-10-31T14:50:00.517Z,53.74
2017-10-31T14:52:28.248Z,53.96
2017-10-31T14:54:55.864Z,54.24
2017-10-31T14:57:23.537Z,54.59
2017-10-31T14:59:51.194Z,54.38
2017-10-31T15:02:18.808Z,54.96
2017-10-31T15:04:46.435Z,55.01
2017-10-31T15:07:14.111Z,55.74
2017-10-31T15:09:41.734Z,55.74
2017-10-31T15:12:09.354Z,56.08
2017-10-31T15:14:37.016Z,56.17
2017-10-31T15:17:04.635Z,56.34
2017-10-31T15:19:32.255Z,56.91
2017-10-31T15:21:59.963Z,57.36
2017-10-31T15:24:27.570Z,56.44
2017-10-31T15:26:55.183Z,56.88
2017-10-31T15:29:22.865Z,55.90
2017-10-31T15:31:50.544Z,56.16
2017-10-31T15:34:18.151Z,56.12
2017-10-31T15:36:45.808Z,56.18
2017-10-31T15:39:13.516Z,55.77
2017-10-31T15:41:41.202Z,55.58
2017-10-31T15:44:08.859Z,55.64
2017-10-31T15:46:36.471Z,55.47
2017-10-31T15:49:04.080Z,55.76
2017-10-31T15:51:31.792Z,54.59
2017-10-31T15:53:59.425Z,54.77
2017-10-31T15:56:27.107Z,56.30
2017-10-31T15:58:54.836Z,56.30
2017-10-31T16:01:22.467Z,55.85
2017-10-31T16:03:50.088Z,54.86
2017-10-31T16:06:17.757Z,54.67
2017-10-31T16:08:45.429Z,54.99
2017-10-31T16:11:13.104Z,55.63
2017-10-31T16:13:40.839Z,55.08
2017-10-31T16:16:08.455Z,55.19
2017-10-31T16:18:36.075Z,56.24
2017-10-31T16:21:03.804Z,56.28
2017-10-31T16:23:31.420Z,56.32
2017-10-31T16:25:59.040Z,56.34
2017-10-31T16:28:26.724Z,56.51
2017-10-31T16:30:54.347Z,56.62
2017-10-31T16:33:21.953Z,56.94
2017-10-31T16:35:49.625Z,56.80
2017-10-31T16:38:17.239Z,57.06
2017-10-31T16:40:44.965Z,56.99
2017-10-31T16:43:12.654Z,57.57
2017-10-31T16:45:40.272Z,57.62
2017-10-31T16:48:07.896Z,57.39
2017-10-31T16:50:35.560Z,57.90
2017-10-31T16:53:03.187Z,57.79
2017-10-31T16:55:30.803Z,57.21
2017-10-31T16:57:58.551Z,57.94
2017-10-31T17:00:26.220Z,57.92
2017-10-31T17:02:53.907Z,57.58
2017-10-31T17:05:21.640Z,57.53
2017-10-31T17:07:49.323Z,58.60
2017-10-31T17:10:16.949Z,58.21
2017-10-31T17:12:44.623Z,57.77
2017-10-31T17:15:12.247Z,57.25
2017-10-31T17:17:39.861Z,57.84
2017-10-31T17:20:07.557Z,57.86
2017-10-31T17:22:35.184Z,57.97
2017-10-31T17:25:02.803Z,58.06
2017-10-31T17:27:30.487Z,58.37
2017-10-31T17:29:58.103Z,57.85
2017-10-31T17:32:25.716Z,57.72
2017-10-31T17:34:53.392Z,58.38
2017-10-31T17:37:20.999Z,57.67
2017-10-31T17:39:48.632Z,58.43
2017-10-31T17:42:16.304Z,57.42
2017-10-31T17:44:43.981Z,57.53
2017-10-31T17:47:11.600Z,57.66
2017-10-31T17:49:40.067Z,58.31
2017-10-31T17:52:07.686Z,58.04
2017-10-31T17:54:35.362Z,58.38
2017-10-31T17:57:03.030Z,57.88
2017-10-31T17:59:30.638Z,57.26
2017-10-31T18:01:58.312Z,57.45
2017-10-31T18:04:26.041Z,57.39
2017-10-31T18:06:53.654Z,57.72
2017-10-31T18:09:21.264Z,57.14
2017-10-31T18:11:49.016Z,57.22
2017-10-31T18:14:16.639Z,56.81
2017-10-31T18:16:44.317Z,56.81
2017-10-31T18:19:11.975Z,56.96
2017-10-31T18:21:39.627Z,57.32
2017-10-31T18:24:07.245Z,57.45
2017-10-31T18:26:34.895Z,56.61
2017-10-31T18:29:02.578Z,57.12
2017-10-31T18:31:30.202Z,56.93
2017-10-31T18:33:57.863Z,57.18
2017-10-31T18:36:25.527Z,56.81
2017-10-31T18:38:53.195Z,56.11
2017-10-31T18:41:20.915Z,55.85
2017-10-31T18:43:48.524Z,56.47
2017-10-31T18:46:16.191Z,56.52
2017-10-31T18:48:44.889Z,55.71
2017-10-31T18:51:12.507Z,56.54
2017-10-31T18:53:40.183Z,56.58
2017-10-31T18:56:07.866Z,56.78
2017-10-31T18:58:35.481Z,56.43
2017-10-31T19:01:03.183Z,56.64
2017-10-31T19:03:30.915Z,56.69
2017-10-31T19:05:58.528Z,57.45
2017-10-31T19:08:26.213Z,57.28
2017-10-31T19:10:53.911Z,57.19
2017-10-31T19:13:21.525Z,57.37
2017-10-31T19:15:49.201Z,56.87
2017-10-31T19:18:16.867Z,57.65
2017-10-31T19:20:44.480Z,56.90
2017-10-31T19:23:12.172Z,56.47
2017-10-31T19:25:39.905Z,57.13
2017-10-31T19:28:07.531Z,57.67
2017-10-31T19:30:35.207Z,57.27
2017-10-31T19:33:02.895Z,57.15
2017-10-31T19:35:30.518Z,57.16
2017-10-31T19:37:58.141Z,56.80
2017-10-31T19:40:25.881Z,56.57
2017-10-31T19:42:53.483Z,56.88
2017-10-31T19:45:21.152Z,56.84
2017-10-31T19:47:48.810Z,57.50
2017-10-31T19:50:16.432Z,57.31
2017-10-31T19:52:44.096Z,56.97
2017-10-31T19:55:11.792Z,56.96
2017-10-31T19:57:39.395Z,57.94
2017-10-31T20:00:07.003Z,57.52
2017-10-31T20:02:34.679Z,57.83
2017-10-31T20:05:03.143Z,57.34
2017-10-31T20:07:30.756Z,57.10
2017-10-31T20:09:58.415Z,56.81
2017-10-31T20:12:26.031Z,57.34
2017-10-31T20:14:53.651Z,56.80
2017-10-31T20:17:21.386Z,57.25
2017-10-31T20:19:49.058Z,56.68
2017-10-31T20:22:16.672Z,56.85
2017-10-31T20:24:44.355Z,56.52
2017-10-31T20:27:12.023Z,57.32
2017-10-31T20:29:39.635Z,56.49
2017-10-31T20:32:07.291Z,57.18
2017-10-31T20:34:34.896Z,56.29
2017-10-31T20:37:02.525Z,56.96
2017-10-31T20:39:30.239Z,57.33
2017-10-31T20:41:57.875Z,56.95
2017-10-31T20:44:25.486Z,56.48
2017-10-31T20:46:53.135Z,56.96
2017-10-31T20:49:20.804Z,57.43
2017-10-31T20:51:48.475Z,57.85
2017-10-31T20:54:16.235Z,58.02
2017-10-31T20:56:43.849Z,58.02
2017-10-31T20:59:11.471Z,58.19
2017-10-31T21:01:39.132Z,58.88
2017-10-31T21:04:06.740Z,59.18
2017-10-31T21:06:34.422Z,59.07
2017-10-31T21:09:02.148Z,58.28
2017-10-31T21:11:29.820Z,58.72
2017-10-31T21:13:57.491Z,59.29
2017-10-31T21:16:25.176Z,59.31
2017-10-31T21:18:52.849Z,59.90
2017-10-31T21:21:20.473Z,59.31
2017-10-31T21:23:48.167Z,59.46
2017-10-31T21:26:15.835Z,59.37
2017-10-31T21:28:43.455Z,60.11
2017-10-31T21:31:11.115Z,60.13
2017-10-31T21:33:39.483Z,60.45
2017-10-31T21:36:07.099Z,60.53
2017-10-31T21:38:34.755Z,60.92
2017-10-31T21:41:02.432Z,61.03
2017-10-31T21:43:30.041Z,60.72
2017-10-31T21:45:57.715Z,60.76
2017-10-31T21:48:25.332Z,61.06
2017-10-31T21:53:51.168Z,60.26
2017-10-31T21:56:18.775Z,60.18
2017-10-31T21:58:46.387Z,60.82
2017-10-31T22:01:14.096Z,60.21
2017-10-31T22:03:41.696Z,60.20
2017-10-31T22:06:09.317Z,60.59
2017-10-31T22:08:36.988Z,60.42
2017-10-31T22:11:04.655Z,60.57
2017-10-31T22:13:32.272Z,60.61
2017-10-31T22:15:59.932Z,60.67
2017-10-31T22:18:27.543Z,60.65
2017-10-31T22:20:55.154Z,60.73
2017-10-31T22:23:22.817Z,60.85
2017-10-31T22:25:50.476Z,61.12
2017-10-31T22:28:18.144Z,60.67
2017-10-31T22:30:45.804Z,60.58
2017-10-31T22:33:13.429Z,61.12
2017-10-31T22:35:41.038Z,60.67
2017-10-31T22:38:08.707Z,60.65
2017-10-31T22:40:36.314Z,61.27
2017-10-31T22:43:03.932Z,60.78
2017-10-31T22:45:31.603Z,60.99
2017-10-31T22:47:59.223Z,61.31
2017-10-31T22:50:26.836Z,62.68
2017-10-31T22:52:54.560Z,63.40
2017-10-31T22:55:22.225Z,63.55
2017-10-31T22:57:49.837Z,63.59
2017-10-31T23:00:17.562Z,62.94
2017-10-31T23:02:45.231Z,62.94
2017-10-31T23:05:12.839Z,62.82
2017-10-31T23:07:40.599Z,62.77
2017-10-31T23:10:08.211Z,63.34
2017-10-31T23:12:35.876Z,63.86
2017-10-31T23:15:03.634Z,63.97
2017-10-31T23:17:31.304Z,63.79
2017-10-31T23:19:58.905Z,63.82
2017-10-31T23:22:26.551Z,64.34
2017-10-31T23:24:54.144Z,64.76
2017-10-31T23:27:21.750Z,64.58
2017-10-31T23:29:49.496Z,64.73
2017-10-31T23:32:17.165Z,64.56
2017-10-31T23:34:44.783Z,64.77
2017-10-31T23:37:12.428Z,64.96
2017-10-31T23:39:40.108Z,65.49
2017-10-31T23:42:07.717Z,65.67
2017-10-31T23:44:35.376Z,65.95
2017-10-31T23:47:02.987Z,66.16
2017-10-31T23:49:30.608Z,66.02
2017-10-31T23:51:58.271Z,65.96
2017-10-31T23:54:25.951Z,66.51
2017-10-31T23:56:53.562Z,67.05
2017-10-31T23:59:21.225Z,67.73
